Time;durP1;ratioP1;P1;durP2;ratioP2;P2;SDS_P1;SDS_P2;PMS_P1;PMS_P2;Temp;Humidity;BMP_temperature;BMP_pressure;BME280_temperature;BME280_humidity;BME280_pressure;Samples;Min_cycle;Max_cycle;Signal;HPM_P1;HPM_P2
2022/12/24 00:00:56;;;;;;;15.30;7.75;;;;;;;2.20;100.00;98335.06;5159402;27;20415;-63
2022/12/24 00:03:23;;;;;;;17.48;8.25;;;;;;;1.96;100.00;98330.31;5159590;27;20055;-63
2022/12/24 00:05:49;;;;;;;14.90;7.40;;;;;;;2.04;100.00;98324.06;5159422;27;20047;-65
2022/12/24 00:08:15;;;;;;;14.38;8.13;;;;;;;1.87;100.00;98320.34;5159709;27;20046;-63
2022/12/24 00:10:42;;;;;;;14.40;8.35;;;;;;;1.76;100.00;98294.03;5159299;27;20057;-64
2022/12/24 00:13:08;;;;;;;20.35;8.25;;;;;;;1.97;100.00;98278.63;5159653;27;20143;-64
2022/12/24 00:15:34;;;;;;;17.63;8.95;;;;;;;2.11;100.00;98265.63;5159419;27;20377;-65
2022/12/24 00:18:01;;;;;;;15.02;7.55;;;;;;;2.31;100.00;98282.97;5159050;27;20057;-61
2022/12/24 00:20:27;;;;;;;19.73;8.63;;;;;;;2.29;100.00;98297.94;5159394;27;20058;-63
2022/12/24 00:22:53;;;;;;;19.23;8.05;;;;;;;2.11;100.00;98308.91;5159162;27;20340;-65
2022/12/24 00:25:19;;;;;;;20.05;8.65;;;;;;;2.21;100.00;98294.19;5159267;27;20057;-63
2022/12/24 00:27:46;;;;;;;17.00;9.25;;;;;;;2.20;100.00;98298.03;5159197;27;20073;-65
2022/12/24 00:30:12;;;;;;;20.73;8.65;;;;;;;2.39;100.00;98299.44;5159147;27;20053;-62
2022/12/24 00:32:38;;;;;;;19.52;9.45;;;;;;;2.17;100.00;98311.41;5158820;27;20062;-66
2022/12/24 00:35:06;;;;;;;25.45;8.90;;;;;;;2.33;100.00;98299.66;5159294;27;20052;-62
2022/12/24 00:37:33;;;;;;;17.05;8.23;;;;;;;2.39;100.00;98296.75;5158798;27;20433;-63
2022/12/24 00:39:59;;;;;;;19.85;8.48;;;;;;;2.22;100.00;98301.16;5159211;27;20049;-65
2022/12/24 00:42:25;;;;;;;36.33;9.20;;;;;;;2.44;100.00;98296.53;5158630;27;20106;-63
2022/12/24 00:44:51;;;;;;;21.88;9.02;;;;;;;2.35;100.00;98310.13;5158636;27;20437;-67
2022/12/24 00:47:17;;;;;;;19.55;9.20;;;;;;;2.32;100.00;98311.59;5158986;27;20126;-62
2022/12/24 00:49:44;;;;;;;20.35;8.90;;;;;;;2.12;100.00;98304.28;5158638;27;20444;-67
2022/12/24 00:52:11;;;;;;;31.60;9.00;;;;;;;2.16;100.00;98301.69;5158658;27;20046;-63
2022/12/24 00:54:37;;;;;;;18.80;9.25;;;;;;;2.27;100.00;98289.38;5158519;27;20095;-65
2022/12/24 00:57:03;;;;;;;19.30;8.27;;;;;;;2.48;100.00;98292.03;5158826;27;20051;-64
2022/12/24 00:59:29;;;;;;;19.83;9.25;;;;;;;1.96;100.00;98301.34;5158590;27;20055;-65
2022/12/24 01:01:56;;;;;;;18.98;8.00;;;;;;;2.30;100.00;98275.97;5158625;27;20046;-63
2022/12/24 01:07:06;;;;;;;;;;;;;;;2.17;100.00;98270.84;5158863;27;20104;-65
2022/12/24 01:09:33;;;;;;;22.40;8.55;;;;;;;2.32;100.00;98262.13;5158304;27;19931;-66
2022/12/24 01:12:00;;;;;;;17.30;8.13;;;;;;;2.44;100.00;98264.88;5158514;27;20061;-63
2022/12/24 01:14:26;;;;;;;20.55;8.95;;;;;;;2.45;100.00;98279.19;5158570;27;20058;-66
2022/12/24 01:16:52;;;;;;;20.05;8.30;;;;;;;2.55;100.00;98282.25;5158175;27;20417;-63
2022/12/24 01:19:18;;;;;;;19.17;7.70;;;;;;;2.54;100.00;98304.25;5158429;27;20050;-66
2022/12/24 01:21:44;;;;;;;23.80;9.80;;;;;;;2.44;100.00;98304.66;5158280;27;20082;-63
2022/12/24 01:24:14;;;;;;;23.00;8.18;;;;;;;2.42;100.00;98304.97;5158420;27;20111;-66
2022/12/24 01:26:41;;;;;;;21.30;8.55;;;;;;;2.54;100.00;98317.78;5157972;27;20426;-62
2022/12/24 01:29:07;;;;;;;25.30;8.85;;;;;;;2.52;100.00;98315.38;5158039;27;20145;-66
2022/12/24 01:31:34;;;;;;;18.73;8.48;;;;;;;2.54;100.00;98320.50;5157992;27;20412;-63
2022/12/24 01:34:00;;;;;;;22.27;8.32;;;;;;;2.50;100.00;98306.84;5158441;27;20054;-63
2022/12/24 01:36:26;;;;;;;19.73;8.18;;;;;;;2.57;100.00;98315.19;5157917;27;20054;-65
2022/12/24 01:38:53;;;;;;;19.65;8.02;;;;;;;2.53;100.00;98318.88;5158160;27;20047;-63
2022/12/24 01:44:30;;;;;;;23.17;8.15;;;;;;;2.54;100.00;98326.69;5157880;27;20495;-65
2022/12/24 01:47:02;;;;;;;19.65;7.43;;;;;;;2.39;100.00;98323.78;5152945;27;20046;-63
2022/12/24 01:49:30;;;;;;;18.67;8.40;;;;;;;2.64;100.00;98322.00;5157765;27;20076;-66
2022/12/24 01:52:00;;;;;;;23.83;8.23;;;;;;;2.68;100.00;98329.09;5158248;27;20051;-65
2022/12/24 01:54:31;;;;;;;21.00;8.63;;;;;;;2.68;100.00;98334.50;5157692;27;20074;-63
2022/12/24 01:57:03;;;;;;;17.33;7.70;;;;;;;2.64;100.00;98349.84;5157705;27;20134;-66
2022/12/24 01:59:32;;;;;;;18.08;6.97;;;;;;;2.67;100.00;98342.97;5157965;27;20057;-62
2022/12/24 02:01:58;;;;;;;19.25;7.40;;;;;;;2.70;100.00;98356.63;5157778;27;20331;-63
2022/12/24 02:04:33;;;;;;;16.63;6.93;;;;;;;2.63;100.00;98363.69;5157857;27;20051;-62
2022/12/24 02:06:59;;;;;;;15.95;7.45;;;;;;;2.71;100.00;98354.72;5157686;27;20388;-65
2022/12/24 02:09:26;;;;;;;18.42;7.75;;;;;;;2.66;100.00;98361.09;5157823;27;20051;-64
2022/12/24 02:11:52;;;;;;;21.98;7.20;;;;;;;2.52;100.00;98361.38;5157594;27;20047;-65
2022/12/24 02:14:19;;;;;;;24.08;7.63;;;;;;;2.73;100.00;98361.38;5157606;27;20054;-63
2022/12/24 02:16:53;;;;;;;25.95;7.90;;;;;;;2.72;100.00;98376.03;5157438;27;20042;-64
2022/12/24 02:19:53;;;;;;;16.52;6.43;;;;;;;2.62;100.00;98379.13;5157311;27;20050;-63
2022/12/24 02:22:27;;;;;;;20.50;8.23;;;;;;;2.51;100.00;98367.16;5157476;27;20057;-63
2022/12/24 02:25:22;;;;;;;13.80;6.93;;;;;;;2.58;100.00;98360.06;5157369;27;20339;-62
2022/12/24 02:27:56;;;;;;;19.77;7.72;;;;;;;2.66;100.00;98349.50;5157767;27;20064;-64
2022/12/24 02:30:26;;;;;;;17.25;7.32;;;;;;;2.76;100.00;98362.63;5157313;27;20141;-65
2022/12/24 02:33:14;;;;;;;18.98;7.03;;;;;;;2.74;100.00;98376.50;5157193;27;20050;-65
2022/12/24 02:35:48;;;;;;;17.05;7.45;;;;;;;2.60;100.00;98376.00;5157567;27;20391;-64
2022/12/24 02:38:21;;;;;;;19.63;6.55;;;;;;;2.73;100.00;98377.63;5157237;27;20047;-63
2022/12/24 02:40:51;;;;;;;21.00;7.78;;;;;;;2.86;100.00;98380.34;5160219;27;20150;-64
2022/12/24 02:43:22;;;;;;;20.83;7.82;;;;;;;2.73;100.00;98393.88;5160905;27;20442;-64
2022/12/24 02:45:54;;;;;;;17.90;7.55;;;;;;;2.51;100.00;98403.09;5161057;27;20079;-64
2022/12/24 02:48:23;;;;;;;18.88;7.70;;;;;;;2.83;100.00;98404.28;5160582;27;20062;-66
2022/12/24 02:50:58;;;;;;;17.58;6.75;;;;;;;2.82;100.00;98410.81;5161092;27;20311;-65
2022/12/24 02:53:24;;;;;;;13.07;6.60;;;;;;;2.77;100.00;98413.72;5160605;27;20047;-66
2022/12/24 02:56:06;;;;;;;21.60;7.93;;;;;;;2.75;100.00;98415.97;5160722;27;20309;-63
2022/12/24 02:58:41;;;;;;;21.30;7.88;;;;;;;2.89;100.00;98414.88;5160753;27;20042;-63
2022/12/24 03:01:17;;;;;;;14.77;7.43;;;;;;;2.71;100.00;98415.03;5160543;27;20078;-64
2022/12/24 03:03:56;;;;;;;17.67;8.02;;;;;;;2.47;100.00;98418.41;5160634;27;20404;-64
2022/12/24 03:06:32;;;;;;;20.95;7.03;;;;;;;2.87;100.00;98417.94;5160317;27;20050;-66
2022/12/24 03:09:05;;;;;;;19.25;7.53;;;;;;;2.85;100.00;98422.09;5160476;27;20051;-64
2022/12/24 03:11:35;;;;;;;22.80;8.35;;;;;;;2.92;100.00;98427.78;5160538;27;20046;-63
2022/12/24 03:14:02;;;;;;;17.42;7.55;;;;;;;2.83;100.00;98434.06;5160141;27;20050;-64
2022/12/24 03:16:29;;;;;;;17.60;7.43;;;;;;;2.88;100.00;98443.09;5160314;27;20145;-64
2022/12/24 03:18:58;;;;;;;18.67;7.68;;;;;;;2.96;100.00;98453.06;5160212;27;20380;-63
2022/12/24 03:21:30;;;;;;;22.27;8.02;;;;;;;2.87;100.00;98446.94;5160531;27;20051;-65
2022/12/24 03:23:56;;;;;;;17.25;7.63;;;;;;;2.96;100.00;98442.22;5160108;27;20081;-64
2022/12/24 03:26:24;;;;;;;21.70;8.15;;;;;;;2.87;100.00;98449.66;5160400;27;20043;-65
2022/12/24 03:28:51;;;;;;;17.05;8.55;;;;;;;2.86;100.00;98445.34;5159954;27;20053;-64
2022/12/24 03:31:18;;;;;;;25.17;8.13;;;;;;;2.75;100.00;98437.63;5159743;27;20046;-63
2022/12/24 03:33:45;;;;;;;18.02;7.32;;;;;;;2.80;100.00;98431.22;5160197;27;20301;-64
2022/12/24 03:36:12;;;;;;;20.95;7.60;;;;;;;2.90;100.00;98433.53;5160026;27;20055;-66
2022/12/24 03:38:39;;;;;;;22.08;7.63;;;;;;;2.94;100.00;98442.56;5159923;27;20098;-62
2022/12/24 03:41:06;;;;;;;22.65;7.88;;;;;;;2.99;100.00;98442.34;5159967;27;20391;-64
2022/12/24 03:43:32;;;;;;;18.38;7.18;;;;;;;3.01;100.00;98447.44;5160030;27;20051;-63
2022/12/24 03:46:04;;;;;;;18.92;7.40;;;;;;;2.96;100.00;98444.94;5159761;27;20051;-64
2022/12/24 03:48:30;;;;;;;17.00;6.90;;;;;;;2.94;100.00;98452.59;5159961;27;20057;-62
2022/12/24 03:50:57;;;;;;;17.98;6.75;;;;;;;2.92;100.00;98452.91;5159264;27;20376;-66
2022/12/24 03:53:23;;;;;;;17.33;7.32;;;;;;;2.86;100.00;98453.44;5159987;27;20483;-64
2022/12/24 03:55:49;;;;;;;16.70;6.88;;;;;;;3.06;100.00;98449.94;5159583;27;20074;-65
2022/12/24 03:58:16;;;;;;;18.83;6.63;;;;;;;2.77;100.00;98454.31;5159955;27;20055;-65
2022/12/24 04:00:42;;;;;;;17.83;7.32;;;;;;;2.94;100.00;98437.16;5159407;27;20487;-66
2022/12/24 04:03:08;;;;;;;14.48;6.25;;;;;;;2.71;100.00;98446.75;5159247;27;20055;-62
2022/12/24 04:05:34;;;;;;;17.83;6.43;;;;;;;2.68;100.00;98437.34;5159440;27;20142;-66
2022/12/24 04:08:01;;;;;;;16.70;7.20;;;;;;;2.88;100.00;98434.97;5159491;27;20051;-62
2022/12/24 04:10:28;;;;;;;19.52;7.10;;;;;;;2.96;100.00;98440.31;5159661;27;20191;-65
2022/12/24 04:12:54;;;;;;;16.40;6.38;;;;;;;2.93;100.00;98449.13;5159448;27;20133;-63
2022/12/24 04:15:20;;;;;;;16.08;7.07;;;;;;;2.86;100.00;98458.88;5159500;27;20111;-64
2022/12/24 04:17:46;;;;;;;17.77;7.28;;;;;;;2.99;100.00;98460.50;5159281;27;20107;-63
2022/12/24 04:20:13;;;;;;;19.30;7.60;;;;;;;3.00;100.00;98473.75;5159593;27;20361;-65
2022/12/24 04:22:39;;;;;;;20.30;7.18;;;;;;;2.97;100.00;98465.47;5159054;27;20331;-62
2022/12/24 04:25:07;;;;;;;23.33;7.95;;;;;;;3.06;100.00;98463.47;5159497;27;20042;-65
2022/12/24 04:27:33;;;;;;;19.20;6.95;;;;;;;3.01;100.00;98474.53;5158956;27;20053;-66
2022/12/24 04:30:00;;;;;;;20.38;7.72;;;;;;;3.01;100.00;98469.91;5159201;27;20050;-63
2022/12/24 04:32:26;;;;;;;18.50;7.28;;;;;;;3.02;100.00;98474.19;5158913;27;20110;-66
2022/12/24 04:34:52;;;;;;;16.65;6.55;;;;;;;3.04;100.00;98473.88;5158781;27;20054;-64
2022/12/24 04:37:18;;;;;;;15.90;7.50;;;;;;;2.94;100.00;98479.69;5158963;27;20070;-64
2022/12/24 04:39:45;;;;;;;20.95;8.50;;;;;;;3.00;100.00;98473.75;5158825;27;20057;-64
2022/12/24 04:42:12;;;;;;;23.92;8.75;;;;;;;3.08;100.00;98479.41;5159069;27;20046;-65
2022/12/24 04:44:38;;;;;;;25.95;8.30;;;;;;;3.03;100.00;98480.38;5158620;27;20054;-63
2022/12/24 04:47:05;;;;;;;23.27;8.35;;;;;;;3.02;100.00;98490.44;5159012;27;20095;-65
2022/12/24 04:49:31;;;;;;;21.45;8.13;;;;;;;2.94;100.00;98490.50;5158711;27;20331;-63
2022/12/24 04:51:57;;;;;;;19.90;7.78;;;;;;;2.96;100.00;98490.97;5159029;27;20068;-65
2022/12/24 04:54:23;;;;;;;19.10;8.48;;;;;;;2.88;100.00;98494.53;5158554;27;20107;-64
2022/12/24 04:56:50;;;;;;;19.73;7.35;;;;;;;2.87;100.00;98501.88;5159061;27;20110;-64
2022/12/24 04:59:16;;;;;;;17.38;6.90;;;;;;;2.99;100.00;98506.53;5158819;27;20093;-64
2022/12/24 05:01:43;;;;;;;25.10;8.38;;;;;;;2.94;100.00;98510.25;5157884;27;20404;-64
2022/12/24 05:04:10;;;;;;;16.02;6.97;;;;;;;2.96;100.00;98504.50;5158367;27;20410;-65
2022/12/24 05:06:36;;;;;;;20.63;7.82;;;;;;;3.02;100.00;98511.31;5158330;27;20134;-63
2022/12/24 05:09:02;;;;;;;20.65;7.82;;;;;;;3.02;100.00;98517.50;5158708;27;20043;-65
2022/12/24 05:11:29;;;;;;;15.07;6.78;;;;;;;2.89;100.00;98509.66;5158358;27;20141;-62
2022/12/24 05:13:55;;;;;;;19.63;7.03;;;;;;;3.02;100.00;98512.09;5158614;27;20066;-66
2022/12/24 05:16:23;;;;;;;16.15;7.18;;;;;;;3.04;100.00;98517.19;5158362;27;20051;-62
2022/12/24 05:18:50;;;;;;;25.75;7.22;;;;;;;2.95;100.00;98511.03;5158479;27;20047;-66
2022/12/24 05:21:19;;;;;;;17.95;6.60;;;;;;;2.92;100.00;98503.56;5158252;27;20339;-66
2022/12/24 05:26:34;;;;;;;17.85;7.53;;;;;;;3.07;100.00;98508.41;5158341;27;20095;-66
2022/12/24 05:29:01;;;;;;;18.48;7.80;;;;;;;3.08;100.00;98509.97;5158242;27;20060;-62
2022/12/24 05:31:32;;;;;;;17.52;7.45;;;;;;;3.06;100.00;98509.50;5158172;27;20047;-63
2022/12/24 05:33:58;;;;;;;23.88;8.18;;;;;;;3.01;100.00;98517.84;5157982;27;20062;-66
2022/12/24 05:36:24;;;;;;;17.02;7.50;;;;;;;2.85;100.00;98523.06;5158404;27;20077;-62
2022/12/24 05:38:51;;;;;;;20.55;8.40;;;;;;;2.91;100.00;98523.66;5157976;27;20050;-64
2022/12/24 05:41:18;;;;;;;21.35;8.27;;;;;;;2.92;100.00;98527.94;5158296;27;20054;-65
2022/12/24 05:43:44;;;;;;;20.23;8.20;;;;;;;2.98;100.00;98524.72;5157814;27;20042;-63
2022/12/24 05:46:12;;;;;;;21.77;8.15;;;;;;;3.00;100.00;98537.91;5157906;27;20187;-65
2022/12/24 05:48:39;;;;;;;25.85;8.98;;;;;;;2.89;100.00;98550.25;5157798;27;20057;-65
2022/12/24 05:51:07;;;;;;;27.50;9.68;;;;;;;2.97;100.00;98542.09;5157764;27;20053;-63
2022/12/24 05:53:34;;;;;;;22.38;9.27;;;;;;;2.94;100.00;98555.50;5157801;27;20059;-64
2022/12/24 05:56:04;;;;;;;18.15;8.68;;;;;;;2.82;100.00;98559.69;5157552;27;20057;-63
2022/12/24 05:58:31;;;;;;;23.90;8.02;;;;;;;2.92;100.00;98561.22;5157833;27;20047;-62
2022/12/24 06:00:57;;;;;;;19.17;8.23;;;;;;;2.96;100.00;98569.47;5157622;27;20100;-65
2022/12/24 06:03:24;;;;;;;20.40;7.93;;;;;;;3.01;100.00;98569.28;5157968;27;20050;-63
2022/12/24 06:05:58;;;;;;;18.00;7.90;;;;;;;2.90;100.00;98562.66;5157723;27;20331;-66
2022/12/24 06:08:24;;;;;;;;;;;;;;;2.98;100.00;98570.75;5158403;27;20050;-63
2022/12/24 06:10:54;;;;;;;19.70;8.75;;;;;;;3.04;100.00;98576.78;5157579;27;19923;-64
2022/12/24 06:13:20;;;;;;;17.85;8.43;;;;;;;2.94;100.00;98572.53;5158515;27;20138;-64
2022/12/24 06:15:46;;;;;;;23.63;8.02;;;;;;;2.95;100.00;98576.81;5161194;27;20137;-65
2022/12/24 06:18:13;;;;;;;20.75;7.82;;;;;;;3.03;100.00;98583.28;5161064;27;20326;-64
2022/12/24 06:20:39;;;;;;;25.25;7.82;;;;;;;3.06;100.00;98590.75;5161206;27;20061;-66
2022/12/24 06:23:06;;;;;;;22.80;8.07;;;;;;;3.07;100.00;98603.19;5161132;27;20055;-63
2022/12/24 06:25:34;;;;;;;29.23;8.18;;;;;;;2.96;100.00;98607.38;5161092;27;20057;-66
2022/12/24 06:28:01;;;;;;;18.77;6.95;;;;;;;2.92;100.00;98601.84;5161021;27;20138;-63
2022/12/24 06:30:27;;;;;;;20.63;8.30;;;;;;;3.04;100.00;98614.69;5161294;27;20069;-64
2022/12/24 06:32:53;;;;;;;24.20;9.15;;;;;;;2.92;100.00;98617.28;5160768;27;20111;-63
2022/12/24 06:35:19;;;;;;;18.13;8.45;;;;;;;3.05;100.00;98613.56;5161346;27;20452;-65
2022/12/24 06:37:45;;;;;;;21.60;8.75;;;;;;;3.02;100.00;98627.75;5160713;27;20053;-64
2022/12/24 06:40:13;;;;;;;22.42;8.52;;;;;;;3.09;100.00;98622.59;5161261;27;20057;-64
2022/12/24 06:42:39;;;;;;;26.45;9.55;;;;;;;3.03;100.00;98629.31;5160548;27;20141;-63
2022/12/24 06:45:06;;;;;;;24.35;10.13;;;;;;;3.16;100.00;98641.03;5160612;27;20061;-64
2022/12/24 06:47:32;;;;;;;22.63;8.30;;;;;;;3.08;100.00;98639.97;5160657;27;20090;-65
2022/12/24 06:49:59;;;;;;;17.65;7.97;;;;;;;2.98;100.00;98641.16;5160490;27;20499;-64
2022/12/24 06:52:25;;;;;;;17.65;8.02;;;;;;;2.84;100.00;98635.19;5160467;27;20092;-65
2022/12/24 06:54:51;;;;;;;18.85;7.93;;;;;;;3.15;100.00;98620.50;5160684;27;20114;-64
2022/12/24 06:57:18;;;;;;;17.75;6.82;;;;;;;3.06;100.00;98643.00;5160926;27;20047;-65
2022/12/24 06:59:44;;;;;;;16.38;7.10;;;;;;;3.16;100.00;98649.16;5160536;27;20061;-65
2022/12/24 07:02:10;;;;;;;18.20;8.07;;;;;;;3.09;100.00;98646.19;5160727;27;20047;-62
2022/12/24 07:04:37;;;;;;;20.38;7.70;;;;;;;3.10;100.00;98639.63;5160350;27;20054;-66
2022/12/24 07:07:03;;;;;;;23.50;8.68;;;;;;;3.16;100.00;98658.06;5160888;27;20052;-62
2022/12/24 07:09:30;;;;;;;18.42;8.55;;;;;;;3.04;100.00;98656.09;5160248;27;20057;-65
2022/12/24 07:11:56;;;;;;;17.95;8.15;;;;;;;3.21;100.00;98652.47;5160399;27;20137;-63
2022/12/24 07:14:23;;;;;;;16.42;7.55;;;;;;;3.19;100.00;98665.56;5160174;27;20050;-63
2022/12/24 07:16:50;;;;;;;22.20;8.85;;;;;;;3.28;100.00;98663.59;5160437;27;20058;-63
2022/12/24 07:19:16;;;;;;;29.23;9.30;;;;;;;3.29;100.00;98676.00;5160515;27;20137;-64
2022/12/24 07:21:42;;;;;;;18.30;8.90;;;;;;;3.09;100.00;98671.34;5160006;27;20050;-62
2022/12/24 07:24:08;;;;;;;16.30;8.20;;;;;;;3.03;100.00;98678.88;5160386;27;20331;-65
2022/12/24 07:26:34;;;;;;;22.60;9.52;;;;;;;3.18;100.00;98680.22;5159184;27;20050;-62
2022/12/24 07:29:01;;;;;;;22.17;9.65;;;;;;;3.23;100.00;98674.63;5160403;27;20388;-65
2022/12/24 07:31:27;;;;;;;19.58;9.05;;;;;;;3.24;100.00;98683.56;5159870;27;20408;-63
2022/12/24 07:33:54;;;;;;;18.80;7.50;;;;;;;3.26;100.00;98695.63;5160435;27;20050;-64
2022/12/24 07:36:21;;;;;;;17.92;8.48;;;;;;;3.28;100.00;98695.31;5159867;27;20407;-64
2022/12/24 07:38:47;;;;;;;22.50;9.30;;;;;;;3.31;100.00;98702.78;5160280;27;20175;-66
2022/12/24 07:41:14;;;;;;;19.55;8.68;;;;;;;3.32;100.00;98698.94;5160047;27;20323;-65
2022/12/24 07:43:40;;;;;;;20.95;8.45;;;;;;;3.25;100.00;98702.16;5159859;27;20055;-63
2022/12/24 07:46:06;;;;;;;15.45;7.72;;;;;;;3.38;100.00;98708.47;5159824;27;20431;-66
2022/12/24 07:48:33;;;;;;;19.92;8.93;;;;;;;3.28;100.00;98717.78;5159621;27;20047;-62
2022/12/24 07:51:00;;;;;;;24.33;9.38;;;;;;;3.45;100.00;98716.88;5159792;27;20416;-65
2022/12/24 07:53:27;;;;;;;18.00;8.57;;;;;;;3.46;100.00;98717.66;5159673;27;20054;-65
2022/12/24 07:55:54;;;;;;;19.67;9.55;;;;;;;3.33;100.00;98729.53;5159965;27;20323;-65
2022/12/24 07:58:20;;;;;;;25.42;10.63;;;;;;;3.39;100.00;98744.50;5159612;27;20062;-66
2022/12/24 08:00:47;;;;;;;19.45;8.73;;;;;;;3.44;100.00;98734.25;5159993;27;20047;-64
2022/12/24 08:03:17;;;;;;;16.67;7.72;;;;;;;3.53;100.00;98740.44;5159240;27;20141;-63
2022/12/24 08:05:44;;;;;;;19.25;8.38;;;;;;;3.51;100.00;98741.88;5159850;27;20064;-64
2022/12/24 08:08:10;;;;;;;24.08;8.57;;;;;;;3.58;100.00;98744.88;5159253;27;20049;-65
2022/12/24 08:10:38;;;;;;;21.38;8.57;;;;;;;3.57;100.00;98753.34;5159530;27;20054;-62
2022/12/24 08:13:04;;;;;;;21.75;9.35;;;;;;;3.58;100.00;98754.91;5159520;27;20058;-64
2022/12/24 08:15:30;;;;;;;22.88;9.60;;;;;;;3.57;100.00;98764.19;5159344;27;20482;-62
2022/12/24 08:17:57;;;;;;;16.05;8.57;;;;;;;3.45;100.00;98765.66;5159296;27;20078;-65
2022/12/24 08:20:23;;;;;;;20.00;8.57;;;;;;;3.44;100.00;98763.28;5159293;27;20061;-62
2022/12/24 08:22:50;;;;;;;19.58;9.00;;;;;;;3.29;100.00;98761.91;5159474;27;20145;-65
2022/12/24 08:25:16;;;;;;;19.70;8.85;;;;;;;3.47;100.00;98770.75;5159006;27;20424;-62
2022/12/24 08:27:42;;;;;;;17.00;8.13;;;;;;;3.58;100.00;98780.09;5159339;27;20130;-65
2022/12/24 08:30:10;;;;;;;16.08;8.73;;;;;;;3.54;100.00;98774.53;5158818;27;20054;-63
2022/12/24 08:32:36;;;;;;;17.27;7.93;;;;;;;3.59;100.00;98780.88;5159293;27;20320;-65
2022/12/24 08:35:03;;;;;;;21.90;9.93;;;;;;;3.61;100.00;98786.78;5158810;27;20396;-62
2022/12/24 08:37:29;;;;;;;18.15;9.63;;;;;;;3.69;100.00;98781.28;5157549;27;20069;-64
2022/12/24 08:39:56;;;;;;;18.63;9.23;;;;;;;3.71;100.00;98776.34;5158800;27;20076;-62
2022/12/24 08:42:22;;;;;;;22.48;10.48;;;;;;;3.70;100.00;98782.91;5158756;27;20055;-66
2022/12/24 08:44:48;;;;;;;17.65;9.10;;;;;;;3.57;100.00;98788.56;5159034;27;20054;-61
2022/12/24 08:47:15;;;;;;;17.35;8.32;;;;;;;3.75;100.00;98792.75;5158642;27;20085;-65
2022/12/24 08:49:41;;;;;;;17.63;8.32;;;;;;;3.81;100.00;98794.16;5158901;27;20100;-61
2022/12/24 08:52:07;;;;;;;15.80;8.15;;;;;;;3.72;100.00;98794.19;5158658;27;20141;-65
2022/12/24 08:54:33;;;;;;;17.27;7.82;;;;;;;3.70;100.00;98785.63;5158901;27;20046;-62
2022/12/24 08:57:00;;;;;;;17.40;7.63;;;;;;;3.75;100.00;98792.75;5158482;27;20047;-65
2022/12/24 08:59:26;;;;;;;15.63;7.93;;;;;;;3.60;100.00;98799.56;5159035;27;20320;-63
2022/12/24 09:01:53;;;;;;;19.88;8.85;;;;;;;3.76;100.00;98797.84;5158382;27;20048;-64
2022/12/24 09:04:19;;;;;;;16.77;7.90;;;;;;;3.84;100.00;98804.34;5158850;27;20350;-63
2022/12/24 09:06:45;;;;;;;16.75;8.32;;;;;;;3.74;100.00;98805.53;5158689;27;20315;-65
2022/12/24 09:09:12;;;;;;;20.55;8.27;;;;;;;3.68;100.00;98795.97;5158319;27;20458;-61
2022/12/24 09:11:38;;;;;;;16.67;8.27;;;;;;;3.64;100.00;98800.47;5158672;27;20053;-64
2022/12/24 09:14:05;;;;;;;15.05;7.82;;;;;;;3.71;100.00;98803.47;5158471;27;20054;-63
2022/12/24 09:16:31;;;;;;;14.60;7.68;;;;;;;3.74;100.00;98804.72;5158525;27;20056;-65
2022/12/24 09:18:58;;;;;;;15.98;7.28;;;;;;;3.50;100.00;98789.88;5158191;27;20046;-62
2022/12/24 09:21:24;;;;;;;14.02;7.40;;;;;;;3.30;100.00;98793.31;5158453;27;20051;-64
2022/12/24 09:23:51;;;;;;;18.67;7.07;;;;;;;3.48;100.00;98811.06;5158074;27;20057;-63
2022/12/24 09:26:19;;;;;;;19.88;8.32;;;;;;;3.64;100.00;98822.16;5158586;27;20046;-65
2022/12/24 09:28:46;;;;;;;15.38;7.05;;;;;;;3.69;100.00;98819.25;5158055;27;20095;-63
2022/12/24 09:31:13;;;;;;;13.73;6.47;;;;;;;3.46;100.00;98807.88;5158495;27;20046;-62
2022/12/24 09:33:40;;;;;;;14.68;7.38;;;;;;;3.47;100.00;98798.66;5157886;27;20494;-65
2022/12/24 09:36:07;;;;;;;15.85;8.40;;;;;;;3.55;100.00;98799.72;5158202;27;20105;-65
2022/12/24 09:38:34;;;;;;;13.57;6.13;;;;;;;3.53;100.00;98805.47;5158273;27;20381;-62
2022/12/24 09:41:01;;;;;;;17.83;8.63;;;;;;;3.32;100.00;98791.06;5157980;27;20451;-62
2022/12/24 09:43:31;;;;;;;12.57;6.45;;;;;;;3.30;100.00;98810.38;5158039;27;20055;-65
2022/12/24 09:46:08;;;;;;;16.33;6.88;;;;;;;3.12;100.00;98816.94;5157728;27;20412;-63
2022/12/24 09:48:40;;;;;;;12.07;6.45;;;;;;;3.41;100.00;98823.56;5159155;27;20061;-66
2022/12/24 09:51:09;;;;;;;14.23;6.82;;;;;;;3.52;100.00;98816.63;5161499;27;20051;-63
2022/12/24 09:53:43;;;;;;;16.95;7.47;;;;;;;3.34;100.00;98805.09;5161968;27;20050;-62
2022/12/24 09:56:15;;;;;;;15.25;6.65;;;;;;;3.49;100.00;98828.13;5161233;27;20055;-61
2022/12/24 09:58:45;;;;;;;13.68;7.18;;;;;;;3.59;100.00;98819.63;5161582;27;20055;-62
2022/12/24 10:01:13;;;;;;;13.10;7.18;;;;;;;3.68;100.00;98811.47;5161574;27;20053;-63
2022/12/24 10:03:40;;;;;;;11.10;6.50;;;;;;;3.66;100.00;98805.56;5161263;27;20525;-62
2022/12/24 10:06:11;;;;;;;14.52;6.55;;;;;;;3.66;100.00;98802.84;5161567;27;20099;-65
2022/12/24 10:08:50;;;;;;;13.38;6.93;;;;;;;3.57;100.00;98788.56;5161386;27;20046;-63
2022/12/24 10:11:23;;;;;;;11.32;6.85;;;;;;;3.69;100.00;98799.47;5161903;27;20104;-64
2022/12/24 10:14:02;;;;;;;17.60;6.37;;;;;;;3.80;100.00;98818.88;5161128;27;20055;-63
2022/12/24 10:16:37;;;;;;;14.15;6.53;;;;;;;3.85;100.00;98813.28;5161073;27;20056;-63
2022/12/24 10:19:13;;;;;;;9.45;5.60;;;;;;;3.29;100.00;98768.13;5161402;27;20114;-66
2022/12/24 10:22:00;;;;;;;11.18;5.70;;;;;;;3.42;100.00;98790.69;5160975;27;20046;-65
2022/12/24 10:24:32;;;;;;;11.68;6.63;;;;;;;3.48;100.00;98799.44;5160837;27;20046;-64
2022/12/24 10:27:02;;;;;;;13.38;7.32;;;;;;;3.37;100.00;98815.28;5161024;27;20054;-65
2022/12/24 10:29:31;;;;;;;13.32;5.88;;;;;;;3.46;100.00;98823.34;5161362;27;20051;-64
2022/12/24 10:32:16;;;;;;;13.50;6.45;;;;;;;3.34;100.00;98826.78;5160856;27;20117;-64
2022/12/24 10:34:43;;;;;;;;;;;;;;;3.49;100.00;98838.97;5161440;27;20376;-63
2022/12/24 10:37:16;;;;;;;10.15;5.45;;;;;;;3.68;100.00;98842.06;5161211;27;19923;-66
2022/12/24 10:39:42;;;;;;;13.48;6.30;;;;;;;3.66;100.00;98838.88;5160719;27;20050;-62
2022/12/24 10:42:11;;;;;;;18.25;6.95;;;;;;;3.75;100.00;98841.56;5161130;27;20133;-64
2022/12/24 10:44:37;;;;;;;11.85;6.15;;;;;;;3.72;100.00;98834.88;5160492;27;20061;-62
2022/12/24 10:47:06;;;;;;;12.95;6.60;;;;;;;3.71;100.00;98838.72;5160960;27;20343;-64
2022/12/24 10:49:39;;;;;;;13.63;6.78;;;;;;;3.64;100.00;98838.44;5160572;27;20148;-66
2022/12/24 10:52:12;;;;;;;14.57;6.43;;;;;;;3.67;100.00;98831.56;5160981;27;20053;-65
2022/12/24 10:55:07;;;;;;;10.95;6.57;;;;;;;3.61;100.00;98828.22;5160362;27;20050;-65
2022/12/24 10:57:34;;;;;;;11.60;6.22;;;;;;;3.33;100.00;98816.25;5160507;27;20133;-65
2022/12/24 11:00:01;;;;;;;12.40;6.30;;;;;;;3.25;100.00;98840.34;5159481;27;20047;-63
2022/12/24 11:02:30;;;;;;;14.35;5.72;;;;;;;3.21;100.00;98854.84;5160235;27;20050;-62
2022/12/24 11:04:58;;;;;;;13.57;6.25;;;;;;;3.29;100.00;98854.81;5160492;27;20050;-63
2022/12/24 11:07:24;;;;;;;11.32;5.97;;;;;;;3.51;100.00;98859.22;5160309;27;20102;-63
2022/12/24 11:09:55;;;;;;;10.05;5.82;;;;;;;3.29;100.00;98843.97;5160751;27;20047;-65
2022/12/24 11:12:25;;;;;;;11.60;5.38;;;;;;;3.40;100.00;98868.81;5160191;27;20334;-64
2022/12/24 11:15:01;;;;;;;11.27;5.55;;;;;;;3.48;100.00;98873.41;5160637;27;20055;-63
2022/12/24 11:17:27;;;;;;;9.55;5.28;;;;;;;3.83;100.00;98875.16;5160253;27;20051;-63
2022/12/24 11:19:54;;;;;;;10.30;5.80;;;;;;;3.89;100.00;98860.28;5160324;27;20054;-64
2022/12/24 11:22:23;;;;;;;11.95;6.00;;;;;;;3.76;100.00;98832.28;5160459;27;20050;-66
2022/12/24 11:24:58;;;;;;;7.95;4.80;;;;;;;3.60;100.00;98801.44;5160115;27;20072;-65
2022/12/24 11:27:33;;;;;;;9.32;5.47;;;;;;;3.50;100.00;98792.59;5160418;27;20129;-65
2022/12/24 11:30:16;;;;;;;;;;;;;;;3.20;100.00;98829.69;5160386;27;20380;-63
2022/12/24 11:32:44;;;;;;;9.52;4.95;;;;;;;2.64;100.00;98874.06;5160362;27;19933;-65
2022/12/24 11:35:15;;;;;;;9.63;4.82;;;;;;;2.77;100.00;98892.06;5159859;27;20366;-65
2022/12/24 11:37:42;;;;;;;9.77;4.43;;;;;;;2.76;100.00;98899.34;5159935;27;20047;-62
2022/12/24 11:40:19;;;;;;;5.68;3.42;;;;;;;2.70;100.00;98900.66;5160072;27;20137;-62